createdAt,value
2023-01-19T00:01:21.414Z,99533.19
2023-01-19T00:03:51.429Z,99528.84
2023-01-19T00:06:21.675Z,99529.78
2023-01-19T00:08:53.069Z,99530.66
2023-01-19T00:11:22.821Z,99533.25
2023-01-19T00:13:55.292Z,99529.78
2023-01-19T00:16:25.390Z,99532.28
2023-01-19T00:18:56.059Z,99534.06
2023-01-19T00:21:25.827Z,99535.84
2023-01-19T00:23:55.672Z,99535.97
2023-01-19T00:26:25.426Z,99534.34
2023-01-19T00:28:57.832Z,99543.94
2023-01-19T00:31:30.103Z,99541.28
2023-01-19T00:33:59.963Z,99532.53
2023-01-19T00:36:29.863Z,99539.44
2023-01-19T00:38:59.683Z,99544.72
2023-01-19T00:41:41.657Z,99542.13
2023-01-19T00:44:14.725Z,99541.25
2023-01-19T00:46:44.672Z,99543.88
2023-01-19T00:49:14.491Z,99541.28
2023-01-19T00:51:44.252Z,99550.81
2023-01-19T00:54:14.011Z,99555.94
2023-01-19T00:56:43.869Z,99561.13
2023-01-19T00:59:16.686Z,99562.09
2023-01-19T01:01:46.700Z,99569.91
2023-01-19T01:04:16.612Z,99570.00
2023-01-19T01:06:46.515Z,99565.75
2023-01-19T01:09:16.292Z,99559.78
2023-01-19T01:11:46.660Z,99563.44
2023-01-19T01:14:19.525Z,99568.03
2023-01-19T01:16:49.460Z,99565.56
2023-01-19T01:19:19.590Z,99574.41
2023-01-19T01:21:49.431Z,99574.50
2023-01-19T01:24:19.244Z,99579.00
2023-01-19T01:26:49.016Z,99581.72
2023-01-19T01:29:21.341Z,99579.22
2023-01-19T01:31:51.151Z,99586.28
2023-01-19T01:34:21.192Z,99583.75
2023-01-19T01:36:51.489Z,99580.38
2023-01-19T01:39:22.125Z,99577.78
2023-01-19T01:41:51.926Z,99578.72
2023-01-19T01:44:56.367Z,99579.59
2023-01-19T01:47:33.802Z,99598.63
2023-01-19T01:50:09.309Z,99595.09
2023-01-19T01:52:44.877Z,99580.38
2023-01-19T01:55:37.728Z,99598.63
2023-01-19T01:58:08.943Z,99599.56
2023-01-19T02:00:55.420Z,99589.22
2023-01-19T02:03:27.552Z,99592.91
2023-01-19T02:06:00.335Z,99591.25
2023-01-19T02:08:48.577Z,99593.06
2023-01-19T02:11:32.043Z,99599.16
2023-01-19T02:14:01.998Z,99605.19
2023-01-19T02:16:35.041Z,99599.09
2023-01-19T02:19:04.893Z,99596.44
2023-01-19T02:21:43.030Z,99608.56
2023-01-19T02:24:15.644Z,99601.59
2023-01-19T02:26:49.591Z,99596.31
2023-01-19T02:29:22.712Z,99594.63
2023-01-19T02:31:52.930Z,99600.63
2023-01-19T02:34:24.039Z,99606.69
2023-01-19T02:36:57.325Z,99593.66
2023-01-19T02:39:34.457Z,99601.47
2023-01-19T02:42:07.502Z,99603.25
2023-01-19T02:44:41.854Z,99596.44
2023-01-19T02:47:11.839Z,99595.69
2023-01-19T02:49:41.642Z,99598.41
2023-01-19T02:52:18.648Z,99597.53
2023-01-19T02:55:02.046Z,99606.13
2023-01-19T02:57:43.824Z,99619.03
2023-01-19T03:00:27.627Z,99612.88
2023-01-19T03:03:12.621Z,99616.22
2023-01-19T03:05:57.224Z,99619.59
2023-01-19T03:08:40.307Z,99613.44
2023-01-19T03:11:14.673Z,99629.06
2023-01-19T03:13:50.237Z,99619.47
2023-01-19T03:16:24.611Z,99622.97
2023-01-19T03:18:57.515Z,99627.34
2023-01-19T03:21:30.436Z,99630.03
2023-01-19T03:24:04.378Z,99630.91
2023-01-19T03:26:41.529Z,99630.06
2023-01-19T03:29:14.801Z,99631.88
2023-01-19T03:31:50.038Z,99639.81
2023-01-19T03:34:22.190Z,99637.28
2023-01-19T03:36:55.814Z,99643.38
2023-01-19T03:39:27.606Z,99651.28
2023-01-19T03:42:03.168Z,99658.22
2023-01-19T03:44:35.969Z,99657.41
2023-01-19T03:47:08.901Z,99672.13
2023-01-19T03:49:40.645Z,99673.06
2023-01-19T03:52:10.420Z,99667.88
2023-01-19T03:54:41.152Z,99666.22
2023-01-19T03:57:13.779Z,99667.06
2023-01-19T03:59:43.543Z,99668.81
2023-01-19T04:02:13.355Z,99674.13
2023-01-19T04:04:43.226Z,99670.72
2023-01-19T04:07:13.886Z,99666.38
2023-01-19T04:09:43.680Z,99670.81
2023-01-19T04:12:16.287Z,99676.16
2023-01-19T04:14:46.058Z,99694.38
2023-01-19T04:17:16.232Z,99693.56
2023-01-19T04:19:46.087Z,99693.56
2023-01-19T04:22:15.908Z,99702.16
2023-01-19T04:24:45.776Z,99705.66
2023-01-19T04:27:18.302Z,99709.06
2023-01-19T04:29:48.157Z,99709.06
2023-01-19T04:32:18.368Z,99705.56
2023-01-19T04:34:48.198Z,99705.50
2023-01-19T04:40:57.825Z,99719.38
2023-01-19T04:43:30.233Z,99718.41
2023-01-19T04:46:00.210Z,99717.47
2023-01-19T04:48:29.953Z,99727.88
2023-01-19T04:50:59.700Z,99719.16
2023-01-19T04:53:29.459Z,99720.81
2023-01-19T04:56:00.684Z,99723.41
2023-01-19T04:58:33.047Z,99739.84
2023-01-19T05:01:02.837Z,99742.41
2023-01-19T05:03:32.600Z,99737.13
2023-01-19T05:06:02.377Z,99739.72
2023-01-19T05:08:32.189Z,99746.59
2023-01-19T05:11:02.084Z,99750.03
2023-01-19T05:13:34.510Z,99743.94
2023-01-19T05:16:04.497Z,99753.34
2023-01-19T05:18:37.131Z,99762.00
2023-01-19T05:21:07.571Z,99763.63
2023-01-19T05:23:37.749Z,99764.41
2023-01-19T05:26:09.537Z,99780.91
2023-01-19T05:28:42.746Z,99775.59
2023-01-19T05:31:12.722Z,99786.84
2023-01-19T05:33:42.674Z,99783.34
2023-01-19T05:36:12.939Z,99772.97
2023-01-19T05:38:42.732Z,99782.59
2023-01-19T05:41:12.589Z,99774.81
2023-01-19T05:43:44.994Z,99787.97
2023-01-19T05:46:14.874Z,99782.81
2023-01-19T05:48:45.236Z,99782.94
2023-01-19T05:51:15.393Z,99794.44
2023-01-19T05:53:45.390Z,99807.56
2023-01-19T05:56:15.221Z,99813.84
2023-01-19T05:58:47.590Z,99799.25
2023-01-19T06:01:17.469Z,99804.50
2023-01-19T06:03:48.920Z,99801.97
2023-01-19T06:06:18.896Z,99813.22
2023-01-19T06:08:49.220Z,99813.09
2023-01-19T06:11:19.002Z,99827.03
2023-01-19T06:13:54.371Z,99827.13
2023-01-19T06:16:24.147Z,99819.31
2023-01-19T06:18:53.931Z,99818.47
2023-01-19T06:21:24.208Z,99821.94
2023-01-19T06:23:53.982Z,99806.28
2023-01-19T06:26:23.737Z,99819.41
2023-01-19T06:28:56.572Z,99822.03
2023-01-19T06:31:26.375Z,99821.09
2023-01-19T06:33:56.164Z,99817.59
2023-01-19T06:36:25.919Z,99818.47
2023-01-19T06:38:55.684Z,99823.69
2023-01-19T06:41:25.468Z,99822.94
2023-01-19T06:43:57.930Z,99832.53
2023-01-19T06:46:27.807Z,99845.56
2023-01-19T06:48:58.065Z,99855.25
2023-01-19T06:51:28.186Z,99858.72
2023-01-19T06:53:57.969Z,99858.78
2023-01-19T06:56:27.930Z,99867.53
2023-01-19T06:59:01.150Z,99872.81
2023-01-19T07:01:31.338Z,99873.69
2023-01-19T07:04:01.322Z,99875.50
2023-01-19T07:06:31.094Z,99873.78
2023-01-19T07:09:00.881Z,99880.88
2023-01-19T07:11:32.676Z,99893.09
2023-01-19T07:14:05.225Z,99895.72
2023-01-19T07:16:35.011Z,99899.38
2023-01-19T07:19:04.927Z,99901.91
2023-01-19T07:21:34.774Z,99906.34
2023-01-19T07:24:04.537Z,99915.97
2023-01-19T07:26:34.286Z,99916.84
2023-01-19T07:29:06.664Z,99930.00
2023-01-19T07:31:36.536Z,99940.34
2023-01-19T07:34:07.105Z,99940.44
2023-01-19T07:36:36.958Z,99950.84
2023-01-19T07:39:06.879Z,99952.63
2023-01-19T07:41:36.666Z,99961.34
2023-01-19T07:44:09.166Z,99975.19
2023-01-19T07:46:39.181Z,99972.66
2023-01-19T07:49:09.006Z,99992.75
2023-01-19T07:51:39.061Z,99991.03
2023-01-19T07:54:08.934Z,99995.44
2023-01-19T07:56:38.846Z,99996.31
2023-01-19T07:59:12.768Z,99998.03
2023-01-19T08:01:42.662Z,99991.16
2023-01-19T08:04:12.801Z,99998.84
2023-01-19T08:06:48.127Z,100006.63
2023-01-19T08:09:18.004Z,100003.06
2023-01-19T08:11:47.872Z,100011.69
2023-01-19T08:14:20.363Z,100014.44
2023-01-19T08:16:50.112Z,100017.94
2023-01-19T08:19:19.891Z,100023.19
2023-01-19T08:21:49.663Z,100030.34
2023-01-19T08:24:22.969Z,100032.19
2023-01-19T08:26:53.078Z,100032.25
2023-01-19T08:29:38.012Z,100041.91
2023-01-19T08:32:09.303Z,100044.66
2023-01-19T08:34:41.168Z,100043.00
2023-01-19T08:37:11.042Z,100048.47
2023-01-19T08:39:41.057Z,100059.84
2023-01-19T08:42:11.008Z,100052.97
2023-01-19T08:44:58.044Z,100052.41
2023-01-19T08:47:29.853Z,100054.31
2023-01-19T08:49:59.816Z,100064.84
2023-01-19T08:52:35.678Z,100066.66
2023-01-19T08:55:05.599Z,100064.16
2023-01-19T08:57:35.575Z,100067.78
2023-01-19T09:00:11.361Z,100075.78
2023-01-19T09:02:41.502Z,100080.13
2023-01-19T09:05:12.223Z,100089.78
2023-01-19T09:07:42.106Z,100081.13
2023-01-19T09:10:13.642Z,100085.53
2023-01-19T09:12:44.092Z,100095.91
2023-01-19T09:15:16.745Z,100101.22
2023-01-19T09:17:46.565Z,100095.97
2023-01-19T09:20:16.427Z,100097.75
2023-01-19T09:22:47.738Z,100107.50
2023-01-19T09:25:17.598Z,100103.22
2023-01-19T09:27:47.563Z,100108.44
2023-01-19T09:30:21.158Z,100107.59
2023-01-19T09:32:51.057Z,100107.69
2023-01-19T09:35:23.503Z,100112.22
2023-01-19T09:37:53.294Z,100120.13
2023-01-19T09:40:23.906Z,100124.56
2023-01-19T09:42:59.696Z,100129.88
2023-01-19T09:45:39.272Z,100132.50
2023-01-19T09:48:21.243Z,100141.22
2023-01-19T09:50:52.395Z,100134.34
2023-01-19T09:53:28.435Z,100148.38
2023-01-19T09:55:58.273Z,100154.47
2023-01-19T09:58:28.379Z,100157.94
2023-01-19T10:01:08.513Z,100156.19
2023-01-19T10:03:44.196Z,100153.59
2023-01-19T10:06:17.534Z,100154.47
2023-01-19T10:08:54.382Z,100159.81
2023-01-19T10:11:41.970Z,100165.09
2023-01-19T10:14:23.777Z,100170.34
2023-01-19T10:17:05.579Z,100157.41
2023-01-19T10:19:39.539Z,100166.06
2023-01-19T10:22:23.407Z,100176.56
2023-01-19T10:24:57.646Z,100159.19
2023-01-19T10:27:32.315Z,100168.03
2023-01-19T10:30:04.193Z,100170.72
2023-01-19T10:32:38.473Z,100165.53
2023-01-19T10:35:21.851Z,100179.63
2023-01-19T10:37:52.284Z,100177.06
2023-01-19T10:40:32.790Z,100182.34
2023-01-19T10:43:03.298Z,100184.13
2023-01-19T10:45:36.760Z,100173.75
2023-01-19T10:48:11.473Z,100180.75
2023-01-19T10:50:42.487Z,100186.69
2023-01-19T10:53:25.854Z,100178.00
2023-01-19T10:56:18.576Z,100186.88
2023-01-19T10:58:48.572Z,100182.53
2023-01-19T11:01:21.850Z,100190.41
2023-01-19T11:03:57.196Z,100178.19
2023-01-19T11:06:30.179Z,100188.66
2023-01-19T11:09:21.207Z,100182.59
2023-01-19T11:11:53.327Z,100196.59
2023-01-19T11:14:25.068Z,100193.19
2023-01-19T11:16:57.826Z,100194.94
2023-01-19T11:19:32.940Z,100200.28
2023-01-19T11:22:21.815Z,100196.09
2023-01-19T11:24:52.568Z,100202.25
2023-01-19T11:27:23.584Z,100202.31
2023-01-19T11:30:05.427Z,100203.28
2023-01-19T11:32:37.200Z,100198.75
2023-01-19T11:35:44.300Z,100201.44
2023-01-19T11:38:20.953Z,100198.81
2023-01-19T11:40:56.465Z,100197.84
2023-01-19T11:43:36.627Z,100200.41
2023-01-19T11:46:18.477Z,100197.66
2023-01-19T11:48:56.719Z,100202.78
2023-01-19T11:51:33.605Z,100207.16
2023-01-19T11:54:12.978Z,100202.91
2023-01-19T11:56:43.742Z,100209.09
2023-01-19T11:59:15.806Z,100204.84
2023-01-19T12:01:52.218Z,100205.00
2023-01-19T12:04:28.342Z,100205.00
2023-01-19T12:07:02.698Z,100214.69
2023-01-19T12:09:38.770Z,100207.03
2023-01-19T12:12:13.461Z,100208.03
2023-01-19T12:14:46.701Z,100211.59
2023-01-19T12:17:22.504Z,100219.56
2023-01-19T12:19:57.121Z,100222.06
2023-01-19T12:22:32.194Z,100220.25
2023-01-19T12:25:07.142Z,100242.06
2023-01-19T12:27:42.704Z,100239.38
2023-01-19T12:30:21.670Z,100246.16
2023-01-19T12:32:51.771Z,100256.97
2023-01-19T12:35:51.460Z,100253.94
2023-01-19T12:38:49.401Z,100249.25
2023-01-19T12:41:25.088Z,100242.88
2023-01-19T12:44:30.839Z,100251.47
2023-01-19T12:47:04.370Z,100241.66
2023-01-19T12:49:42.634Z,100251.13
2023-01-19T12:52:34.627Z,100249.50
2023-01-19T12:55:24.047Z,100249.53
2023-01-19T12:57:59.847Z,100244.28
2023-01-19T13:00:38.574Z,100242.47
2023-01-19T13:03:44.178Z,100245.06
2023-01-19T13:06:13.996Z,100256.38
2023-01-19T13:09:00.779Z,100245.19
2023-01-19T13:11:34.706Z,100253.94
2023-01-19T13:14:37.328Z,100258.41
2023-01-19T13:17:24.947Z,100260.88
2023-01-19T13:20:08.538Z,100270.50
2023-01-19T13:23:20.333Z,100273.91
2023-01-19T13:25:57.549Z,100280.75
2023-01-19T13:28:35.681Z,100281.38
2023-01-19T13:31:07.151Z,100284.66
2023-01-19T13:33:51.058Z,100287.25
2023-01-19T13:36:28.480Z,100284.47
2023-01-19T13:39:00.485Z,100292.97
2023-01-19T13:41:33.308Z,100289.47
2023-01-19T13:44:12.021Z,100293.88
2023-01-19T13:46:43.165Z,100296.41
2023-01-19T13:49:20.162Z,100290.16
2023-01-19T13:52:07.038Z,100302.13
2023-01-19T13:54:36.846Z,100308.38
2023-01-19T13:57:06.766Z,100297.44
2023-01-19T13:59:39.183Z,100292.50
2023-01-19T14:02:17.014Z,100296.75
2023-01-19T14:04:46.934Z,100296.75
2023-01-19T14:07:26.697Z,100303.81
2023-01-19T14:10:08.451Z,100304.78
2023-01-19T14:12:48.111Z,100312.63
2023-01-19T14:15:27.071Z,100322.28
2023-01-19T14:18:25.329Z,100330.19
2023-01-19T14:20:56.964Z,100326.75
2023-01-19T14:23:49.896Z,100319.16
2023-01-19T14:26:46.344Z,100338.41
2023-01-19T14:29:28.958Z,100335.00
2023-01-19T14:32:19.467Z,100339.47
2023-01-19T14:34:51.223Z,100344.69
2023-01-19T14:37:26.963Z,100350.03
2023-01-19T14:40:01.474Z,100344.94
2023-01-19T14:42:35.472Z,100352.91
2023-01-19T14:45:08.899Z,100351.28
2023-01-19T14:47:44.316Z,100356.56
2023-01-19T14:50:25.136Z,100355.81
2023-01-19T14:52:59.431Z,100356.84
2023-01-19T14:55:35.565Z,100363.09
2023-01-19T14:58:11.119Z,100369.25
2023-01-19T15:00:41.047Z,100363.22
2023-01-19T15:03:13.789Z,100365.94
2023-01-19T15:05:47.048Z,100362.34
2023-01-19T15:08:19.497Z,100364.88
2023-01-19T15:10:49.646Z,100370.84
2023-01-19T15:13:22.424Z,100372.50
2023-01-19T15:15:53.033Z,100375.81
2023-01-19T15:18:29.269Z,100381.03
2023-01-19T15:21:02.933Z,100387.00
2023-01-19T15:23:32.818Z,100389.59
2023-01-19T15:26:03.304Z,100399.00
2023-01-19T15:28:33.991Z,100404.00
2023-01-19T15:31:04.079Z,100405.56
2023-01-19T15:33:36.579Z,100409.91
2023-01-19T15:36:06.563Z,100414.06
2023-01-19T15:38:36.328Z,100414.06
2023-01-19T15:41:06.290Z,100411.31
2023-01-19T15:43:36.078Z,100416.41
2023-01-19T15:46:06.388Z,100415.34
2023-01-19T15:48:38.856Z,100411.72
2023-01-19T15:51:08.929Z,100415.06
2023-01-19T15:53:38.761Z,100410.59
2023-01-19T15:56:08.923Z,100425.38
2023-01-19T15:58:38.723Z,100418.34
2023-01-19T16:01:09.045Z,100421.78
2023-01-19T16:03:41.739Z,100417.19
2023-01-19T16:06:12.976Z,100420.38
2023-01-19T16:08:43.010Z,100426.34
2023-01-19T16:11:15.096Z,100428.78
2023-01-19T16:13:48.071Z,100436.38
2023-01-19T16:16:19.532Z,100438.69
2023-01-19T16:18:52.093Z,100442.88
2023-01-19T16:21:22.362Z,100444.41
2023-01-19T16:23:52.342Z,100444.28
2023-01-19T16:26:32.324Z,100440.69
2023-01-19T16:29:07.948Z,100448.28
2023-01-19T16:31:38.231Z,100455.06
2023-01-19T16:34:11.062Z,100457.56
2023-01-19T16:36:42.661Z,100462.72
2023-01-19T16:39:15.355Z,100465.25
2023-01-19T16:41:46.166Z,100466.72
2023-01-19T16:44:17.503Z,100466.56
2023-01-19T16:46:49.885Z,100473.31
2023-01-19T16:49:24.302Z,100474.78
2023-01-19T16:51:55.728Z,100481.56
2023-01-19T16:54:27.791Z,100492.72
2023-01-19T16:56:58.847Z,100489.09
2023-01-19T16:59:29.847Z,100495.81
2023-01-19T17:01:59.965Z,100499.06
2023-01-19T17:04:32.441Z,100502.34
2023-01-19T17:07:02.220Z,100505.59
2023-01-19T17:09:32.066Z,100508.13
2023-01-19T17:12:01.859Z,100511.47
2023-01-19T17:14:31.738Z,100503.47
2023-01-19T17:17:01.683Z,100510.31
2023-01-19T17:19:34.273Z,100504.94
2023-01-19T17:22:04.244Z,100509.09
2023-01-19T17:24:34.075Z,100520.97
2023-01-19T17:27:03.928Z,100523.47
2023-01-19T17:29:33.714Z,100517.06
2023-01-19T17:32:03.450Z,100527.13
2023-01-19T17:34:35.860Z,100525.09
2023-01-19T17:37:05.643Z,100525.66
2023-01-19T17:39:35.511Z,100531.31
2023-01-19T17:42:05.269Z,100526.69
2023-01-19T17:44:35.062Z,100525.59
2023-01-19T17:47:05.063Z,100522.72
2023-01-19T17:49:37.543Z,100520.97
2023-01-19T17:52:07.801Z,100522.56
2023-01-19T17:54:37.536Z,100519.97
2023-01-19T17:57:07.363Z,100515.66
2023-01-19T17:59:38.990Z,100514.94
2023-01-19T18:02:08.795Z,100516.06
2023-01-19T18:04:43.007Z,100511.88
2023-01-19T18:07:12.754Z,100524.16
2023-01-19T18:09:42.530Z,100518.06
2023-01-19T18:12:12.321Z,100516.44
2023-01-19T18:14:42.634Z,100522.78
2023-01-19T18:17:12.381Z,100522.06
2023-01-19T18:19:44.803Z,100529.25
2023-01-19T18:22:14.561Z,100531.13
2023-01-19T18:24:45.793Z,100527.84
2023-01-19T18:27:16.497Z,100528.00
2023-01-19T18:29:46.279Z,100535.03
2023-01-19T18:32:16.123Z,100539.41
2023-01-19T18:34:48.517Z,100533.16
2023-01-19T18:37:18.255Z,100540.69
2023-01-19T18:39:48.018Z,100540.38
2023-01-19T18:42:17.858Z,100544.41
2023-01-19T18:44:47.666Z,100544.97
2023-01-19T18:47:17.417Z,100551.72
2023-01-19T18:49:49.780Z,100549.81
2023-01-19T18:52:19.562Z,100556.66
2023-01-19T18:54:50.817Z,100562.56
2023-01-19T18:57:20.665Z,100560.69
2023-01-19T18:59:50.413Z,100561.41
2023-01-19T19:02:20.276Z,100571.00
2023-01-19T19:04:52.706Z,100569.22
2023-01-19T19:07:22.510Z,100576.03
2023-01-19T19:09:52.296Z,100579.44
2023-01-19T19:12:22.118Z,100582.94
2023-01-19T19:14:51.887Z,100574.97
2023-01-19T19:17:21.771Z,100590.41
2023-01-19T19:19:54.116Z,100592.91
2023-01-19T19:22:25.566Z,100582.34
2023-01-19T19:24:55.435Z,100591.66
2023-01-19T19:27:25.235Z,100598.44
2023-01-19T19:29:54.990Z,100596.69
2023-01-19T19:32:24.747Z,100595.69
2023-01-19T19:34:58.959Z,100594.78
2023-01-19T19:37:29.622Z,100603.59
2023-01-19T19:40:00.202Z,100600.88
2023-01-19T19:42:30.505Z,100603.31
2023-01-19T19:45:00.285Z,100608.25
2023-01-19T19:47:31.598Z,100617.56
2023-01-19T19:50:03.997Z,100618.13
2023-01-19T19:52:33.745Z,100614.31
2023-01-19T19:55:03.531Z,100621.16
2023-01-19T19:57:33.344Z,100620.16
2023-01-19T20:00:05.260Z,100618.34
2023-01-19T20:02:35.062Z,100619.97
2023-01-19T20:05:08.275Z,100621.59
2023-01-19T20:07:39.280Z,100619.69
2023-01-19T20:10:09.750Z,100622.19
2023-01-19T20:12:39.517Z,100635.00
2023-01-19T20:15:10.389Z,100638.13
2023-01-19T20:17:40.179Z,100637.84
2023-01-19T20:20:14.808Z,100638.56
2023-01-19T20:22:44.714Z,100645.19
2023-01-19T20:25:14.491Z,100650.28
2023-01-19T20:27:45.084Z,100647.78
2023-01-19T20:30:15.573Z,100652.88
2023-01-19T20:32:45.363Z,100653.69
2023-01-19T20:35:18.296Z,100648.38
2023-01-19T20:37:48.263Z,100652.78
2023-01-19T20:40:18.685Z,100658.06
2023-01-19T20:42:48.511Z,100658.94
2023-01-19T20:45:19.805Z,100658.25
2023-01-19T20:47:49.582Z,100660.06
2023-01-19T20:50:22.202Z,100665.44
2023-01-19T20:52:52.112Z,100665.53
2023-01-19T20:55:21.875Z,100667.31
2023-01-19T20:57:51.728Z,100669.84
2023-01-19T21:00:22.337Z,100677.44
2023-01-19T21:02:52.188Z,100678.34
2023-01-19T21:05:24.636Z,100677.53
2023-01-19T21:07:54.936Z,100681.03
2023-01-19T21:10:25.027Z,100674.94
2023-01-19T21:12:55.068Z,100671.34
2023-01-19T21:15:24.918Z,100678.44
2023-01-19T21:17:54.884Z,100687.94
2023-01-19T21:20:29.902Z,100685.16
2023-01-19T21:22:59.672Z,100691.06
2023-01-19T21:25:29.447Z,100701.22
2023-01-19T21:27:59.222Z,100706.22
2023-01-19T21:30:29.703Z,100709.53
2023-01-19T21:32:59.488Z,100723.22
2023-01-19T21:35:31.885Z,100730.03
2023-01-19T21:38:01.623Z,100736.84
2023-01-19T21:40:31.392Z,100729.84
2023-01-19T21:43:01.143Z,100739.34
2023-01-19T21:45:30.967Z,100739.03
2023-01-19T21:48:00.776Z,100741.63
2023-01-19T21:50:33.161Z,100747.63
2023-01-19T21:53:03.240Z,100755.25
2023-01-19T21:55:34.561Z,100748.03
2023-01-19T21:58:04.405Z,100756.59
2023-01-19T22:00:34.652Z,100751.41
2023-01-19T22:03:04.967Z,100755.72
2023-01-19T22:05:39.795Z,100763.44
2023-01-19T22:08:09.695Z,100760.53
2023-01-19T22:10:40.043Z,100760.41
2023-01-19T22:13:09.825Z,100762.72
2023-01-19T22:15:39.665Z,100753.72
2023-01-19T22:18:09.519Z,100759.72
2023-01-19T22:20:41.937Z,100758.03
2023-01-19T22:23:11.746Z,100756.31
2023-01-19T22:25:41.567Z,100761.75
2023-01-19T22:28:11.343Z,100767.13
2023-01-19T22:30:41.208Z,100770.91
2023-01-19T22:33:11.023Z,100772.81
2023-01-19T22:35:44.576Z,100784.38
2023-01-19T22:38:14.354Z,100781.97
2023-01-19T22:40:44.126Z,100812.56
2023-01-19T22:43:13.889Z,100806.75
2023-01-19T22:45:43.796Z,100802.53
2023-01-19T22:48:14.158Z,100803.56
2023-01-19T22:50:46.549Z,100806.16
2023-01-19T22:53:16.399Z,100799.25
2023-01-19T22:55:46.150Z,100795.75
2023-01-19T22:58:15.957Z,100804.38
2023-01-19T23:00:45.794Z,100795.56
2023-01-19T23:03:15.530Z,100795.38
2023-01-19T23:05:48.003Z,100789.19
2023-01-19T23:08:17.866Z,100794.06
2023-01-19T23:10:47.731Z,100792.97
2023-01-19T23:13:17.599Z,100795.47
2023-01-19T23:15:47.405Z,100791.88
2023-01-19T23:18:17.211Z,100800.47
2023-01-19T23:20:49.658Z,100799.56
2023-01-19T23:23:19.462Z,100792.56
2023-01-19T23:25:49.255Z,100800.25
2023-01-19T23:28:19.075Z,100790.69
2023-01-19T23:30:49.013Z,100797.56
2023-01-19T23:33:18.865Z,100803.53
2023-01-19T23:35:51.269Z,100809.44
2023-01-19T23:38:22.459Z,100811.13
2023-01-19T23:40:52.467Z,100820.63
2023-01-19T23:43:22.253Z,100818.03
2023-01-19T23:45:52.148Z,100820.63
2023-01-19T23:48:21.973Z,100831.91
2023-01-19T23:50:54.363Z,100825.72
2023-01-19T23:53:24.256Z,100829.22
2023-01-19T23:55:54.089Z,100839.63
2023-01-19T23:58:23.857Z,100828.09
